Time;durP1;ratioP1;P1;durP2;ratioP2;P2;SDS_P1;SDS_P2;PMS_P1;PMS_P2;Temp;Humidity;BMP_temperature;BMP_pressure;BME280_temperature;BME280_humidity;BME280_pressure;Samples;Min_cycle;Max_cycle;Signal;HPM_P1;HPM_P2
2022/04/05 00:00:59;;;;;;;10.00;9.10;;;4.20;99.90;;;;;;5043590;28;20184;-83
2022/04/05 00:03:26;;;;;;;10.53;9.43;;;4.10;99.90;;;;;;5022196;28;20571;-87
2022/04/05 00:05:51;;;;;;;10.97;9.83;;;4.00;99.90;;;;;;5044990;28;20158;-84
2022/04/05 00:08:17;;;;;;;10.17;9.17;;;4.00;99.90;;;;;;5037333;28;20686;-85
2022/04/05 00:10:43;;;;;;;10.30;9.30;;;4.00;99.90;;;;;;5038490;28;20209;-84
2022/04/05 00:13:10;;;;;;;11.70;9.63;;;4.00;99.90;;;;;;5054409;28;20161;-83
2022/04/05 00:15:36;;;;;;;10.33;9.43;;;4.10;99.90;;;;;;5053445;28;20183;-86
2022/04/05 00:18:02;;;;;;;11.07;9.60;;;4.20;99.90;;;;;;5046617;28;20186;-84
2022/04/05 00:20:29;;;;;;;10.33;9.33;;;4.20;99.90;;;;;;5052656;28;20190;-84
2022/04/05 00:22:55;;;;;;;10.03;9.03;;;4.20;99.90;;;;;;5055385;28;20201;-83
2022/04/05 00:25:21;;;;;;;9.90;8.90;;;4.20;99.90;;;;;;5054279;28;20193;-84
2022/04/05 00:27:47;;;;;;;9.87;8.97;;;4.10;99.90;;;;;;5047892;28;20178;-84
2022/04/05 00:30:15;;;;;;;10.37;9.27;;;4.00;99.90;;;;;;5042053;28;20223;-87
2022/04/05 00:32:41;;;;;;;10.80;9.80;;;3.90;99.90;;;;;;5039040;28;20214;-88
2022/04/05 00:35:08;;;;;;;9.63;8.67;;;3.90;99.90;;;;;;5035877;28;20235;-89
2022/04/05 00:37:34;;;;;;;8.90;8.20;;;3.90;99.90;;;;;;5035717;28;20258;-86
2022/04/05 00:40:00;;;;;;;9.90;8.97;;;4.00;99.90;;;;;;5035505;28;20185;-88
2022/04/05 00:42:26;;;;;;;9.33;8.47;;;4.00;99.90;;;;;;5036002;28;20171;-87
2022/04/05 00:44:52;;;;;;;9.47;8.57;;;4.20;99.90;;;;;;5035561;28;20177;-85
2022/04/05 00:47:20;;;;;;;9.50;8.70;;;4.20;99.90;;;;;;5035208;28;20254;-86
2022/04/05 00:51:42;;;;;;;9.70;8.70;;;4.20;99.90;;;;;;5091616;27;21079;-85
2022/04/05 00:54:10;;;;;;;9.70;8.70;;;4.30;99.90;;;;;;5091543;28;20207;-88
2022/04/05 00:56:36;;;;;;;10.03;9.03;;;4.30;99.90;;;;;;5091248;28;20506;-88
2022/04/05 00:59:04;;;;;;;9.97;9.07;;;4.20;99.90;;;;;;5091683;28;20192;-92
2022/04/05 01:01:30;;;;;;;9.87;8.97;;;4.20;99.90;;;;;;5093003;28;20177;-87
2022/04/05 01:03:56;;;;;;;10.07;8.90;;;4.10;99.90;;;;;;5096854;28;20171;-89
2022/04/05 01:06:28;;;;;;;10.20;9.20;;;4.20;99.90;;;;;;5095135;28;20176;-90
2022/04/05 01:08:55;;;;;;;11.70;9.20;;;4.20;99.90;;;;;;5091609;28;20171;-91
2022/04/05 01:11:21;;;;;;;9.93;8.93;;;4.20;99.90;;;;;;5096505;28;20229;-91
2022/04/05 01:13:47;;;;;;;9.17;8.27;;;4.20;99.90;;;;;;5093243;28;20633;-88
2022/04/05 01:16:13;;;;;;;9.77;8.97;;;4.30;99.90;;;;;;5103380;28;20178;-83
2022/04/05 01:18:39;;;;;;;9.53;8.63;;;4.30;99.90;;;;;;5101673;28;20168;-83
2022/04/05 01:21:05;;;;;;;9.57;8.77;;;4.20;99.90;;;;;;5104285;28;20256;-88
2022/04/05 01:23:31;;;;;;;9.83;8.93;;;4.30;99.90;;;;;;5103198;28;20174;-88
2022/04/05 01:25:57;;;;;;;9.73;8.83;;;4.20;99.90;;;;;;5100647;28;20174;-90
2022/04/05 01:28:24;;;;;;;9.53;8.63;;;4.10;99.90;;;;;;5098063;28;20176;-88
2022/04/05 01:30:53;;;;;;;9.60;8.67;;;4.10;99.90;;;;;;5098216;28;20231;-88
2022/04/05 01:33:19;;;;;;;8.90;8.07;;;4.00;99.90;;;;;;5090384;28;20664;-86
2022/04/05 01:35:45;;;;;;;9.83;8.93;;;4.00;99.90;;;;;;5090243;28;20167;-83
2022/04/05 01:38:12;;;;;;;10.00;9.10;;;3.80;99.90;;;;;;5090233;28;20173;-86
2022/04/05 01:40:38;;;;;;;9.20;8.10;;;3.70;99.90;;;;;;5090437;28;20181;-86
2022/04/05 01:43:04;;;;;;;9.23;8.50;;;3.70;99.90;;;;;;5090343;28;20183;-90
2022/04/05 01:45:31;;;;;;;10.47;9.17;;;3.80;99.90;;;;;;5093424;28;20166;-85
2022/04/05 01:47:57;;;;;;;10.57;9.47;;;3.80;99.90;;;;;;5090233;28;20184;-84
2022/04/05 01:50:23;;;;;;;10.60;8.93;;;3.70;99.90;;;;;;5094895;28;20217;-85
2022/04/05 01:52:49;;;;;;;10.27;9.27;;;3.70;99.90;;;;;;5089423;28;20187;-86
2022/04/05 01:55:15;;;;;;;10.30;9.30;;;3.70;99.90;;;;;;5089826;28;20177;-86
2022/04/05 01:57:41;;;;;;;9.87;8.90;;;3.70;99.90;;;;;;5089965;28;20167;-85
2022/04/05 02:00:14;;;;;;;10.03;8.90;;;3.70;99.90;;;;;;5089883;28;20176;-84
2022/04/05 02:02:43;;;;;;;10.23;9.23;;;3.70;99.90;;;;;;5079067;28;20162;-85
2022/04/05 02:05:10;;;;;;;9.20;8.40;;;3.60;99.90;;;;;;5079115;28;20189;-83
2022/04/05 02:07:37;;;;;;;10.20;9.30;;;3.70;99.90;;;;;;5078412;28;20181;-86
2022/04/05 02:10:03;;;;;;;10.17;9.07;;;3.60;99.90;;;;;;5079317;28;20204;-83
2022/04/05 02:12:28;;;;;;;9.97;9.07;;;3.60;99.90;;;;;;5079805;28;20202;-85
2022/04/05 02:14:54;;;;;;;10.03;9.13;;;3.50;99.90;;;;;;5077058;28;20176;-88
2022/04/05 02:17:20;;;;;;;10.03;9.13;;;3.60;99.90;;;;;;5076231;28;20170;-87
2022/04/05 02:19:46;;;;;;;9.80;8.87;;;3.50;99.90;;;;;;5074900;28;20179;-90
2022/04/05 02:22:12;;;;;;;9.63;8.47;;;3.40;99.90;;;;;;5076047;28;20170;-91
2022/04/05 02:24:37;;;;;;;9.40;8.50;;;3.60;99.90;;;;;;5077733;28;20172;-89
2022/04/05 02:27:03;;;;;;;10.03;8.70;;;3.50;99.90;;;;;;5078542;28;20182;-84
2022/04/05 02:29:29;;;;;;;10.07;8.97;;;3.30;99.90;;;;;;5081041;28;20177;-83
2022/04/05 02:31:55;;;;;;;8.87;8.07;;;3.40;99.90;;;;;;5078551;28;20181;-87
2022/04/05 02:34:21;;;;;;;8.97;8.07;;;3.40;99.90;;;;;;5075478;28;20231;-91
2022/04/05 02:36:47;;;;;;;8.87;7.90;;;3.40;99.90;;;;;;5076098;28;20179;-91
2022/04/05 02:39:13;;;;;;;9.23;8.40;;;3.50;99.90;;;;;;5075923;28;20249;-91
2022/04/05 02:41:39;;;;;;;8.50;7.80;;;3.60;99.90;;;;;;5076161;28;20699;-91
2022/04/05 02:44:06;;;;;;;8.90;8.07;;;3.60;99.90;;;;;;5075894;28;20213;-91
2022/04/05 02:46:32;;;;;;;9.63;8.70;;;3.60;99.90;;;;;;5076132;28;20174;-94
2022/04/05 02:48:58;;;;;;;9.10;8.30;;;3.50;99.90;;;;;;5076002;28;20201;-90
2022/04/05 02:51:24;;;;;;;9.33;8.30;;;3.40;99.90;;;;;;5076121;28;20256;-92
2022/04/05 02:53:50;;;;;;;10.73;8.57;;;3.40;99.90;;;;;;5076317;28;20174;-94
2022/04/05 02:56:16;;;;;;;9.03;8.23;;;3.40;99.90;;;;;;5076997;28;20204;-92
2022/04/05 02:58:43;;;;;;;9.97;8.23;;;3.40;99.90;;;;;;5075767;28;20257;-90
2022/04/05 03:01:09;;;;;;;9.27;8.37;;;3.40;99.90;;;;;;5075608;28;20170;-87
2022/04/05 03:03:35;;;;;;;8.97;8.13;;;3.30;99.90;;;;;;5075714;28;20222;-90
2022/04/05 03:06:01;;;;;;;9.57;8.67;;;3.30;99.90;;;;;;5075867;28;20177;-91
2022/04/05 03:08:27;;;;;;;9.00;8.20;;;3.40;99.90;;;;;;5076008;28;20191;-87
2022/04/05 03:10:53;;;;;;;9.37;8.33;;;3.40;99.90;;;;;;5075901;28;20213;-92
2022/04/05 03:13:20;;;;;;;9.47;8.57;;;3.40;99.90;;;;;;5076151;28;20207;-92
2022/04/05 03:15:45;;;;;;;8.83;8.03;;;3.40;99.90;;;;;;5075031;28;20700;-90
2022/04/05 03:18:11;;;;;;;9.10;8.20;;;3.50;99.90;;;;;;5075819;28;20177;-88
2022/04/05 03:20:37;;;;;;;9.27;8.30;;;3.60;99.90;;;;;;5075669;28;20538;-90
2022/04/05 03:23:04;;;;;;;10.00;8.97;;;3.50;99.90;;;;;;5076530;28;20649;-93
2022/04/05 03:25:30;;;;;;;9.23;7.93;;;3.60;99.90;;;;;;5077641;28;20179;-91
2022/04/05 03:27:59;;;;;;;9.07;8.27;;;3.60;99.90;;;;;;5077409;28;20166;-89
2022/04/05 03:30:24;;;;;;;9.17;8.27;;;3.60;99.90;;;;;;5089047;28;20206;-89
2022/04/05 03:32:50;;;;;;;9.70;8.70;;;3.60;99.90;;;;;;5092328;28;20175;-86
2022/04/05 03:35:16;;;;;;;10.23;9.27;;;3.60;99.90;;;;;;5095171;28;20181;-93
2022/04/05 03:37:43;;;;;;;10.63;9.63;;;3.50;99.90;;;;;;5079110;28;20181;-89
2022/04/05 03:40:10;;;;;;;11.93;10.30;;;3.50;99.90;;;;;;5075643;28;20603;-89
2022/04/05 03:42:35;;;;;;;10.90;9.90;;;3.50;99.90;;;;;;5075066;28;20177;-90
2022/04/05 03:45:01;;;;;;;11.33;10.13;;;3.50;99.90;;;;;;5079316;28;20290;-84
2022/04/05 03:47:27;;;;;;;12.07;10.87;;;3.40;99.90;;;;;;5080737;28;20173;-86
2022/04/05 03:49:54;;;;;;;10.73;9.63;;;3.40;99.90;;;;;;5078199;28;20300;-84
2022/04/05 03:52:20;;;;;;;12.67;10.23;;;3.40;99.90;;;;;;5074286;28;20173;-88
2022/04/05 03:54:46;;;;;;;12.93;10.63;;;3.40;99.90;;;;;;5074312;28;20200;-86
2022/04/05 03:57:12;;;;;;;11.57;10.37;;;3.40;99.90;;;;;;5074190;28;20173;-88
2022/04/05 03:59:38;;;;;;;11.50;10.33;;;3.40;99.90;;;;;;5074247;28;20519;-85
2022/04/05 04:02:04;;;;;;;15.30;10.57;;;3.40;99.90;;;;;;5072912;28;20640;-85
2022/04/05 04:04:30;;;;;;;15.80;10.60;;;3.40;99.90;;;;;;5072651;28;20177;-90
2022/04/05 04:06:56;;;;;;;12.87;10.30;;;3.30;99.90;;;;;;5073089;28;20181;-86
2022/04/05 04:09:22;;;;;;;12.03;10.57;;;3.30;99.90;;;;;;5073934;28;20501;-90
2022/04/05 04:11:48;;;;;;;11.07;9.97;;;3.30;99.90;;;;;;5074021;28;20637;-86
2022/04/05 04:14:14;;;;;;;11.37;10.33;;;3.40;99.90;;;;;;5073202;28;20209;-91
2022/04/05 04:16:40;;;;;;;10.90;9.83;;;3.30;99.90;;;;;;5077534;28;20188;-83
2022/04/05 04:19:06;;;;;;;12.70;10.87;;;3.30;99.90;;;;;;5079710;28;20176;-84
2022/04/05 04:21:32;;;;;;;11.50;10.40;;;3.30;99.90;;;;;;5081130;28;20176;-83
2022/04/05 04:23:57;;;;;;;12.63;10.63;;;3.30;99.90;;;;;;5083200;28;20174;-86
2022/04/05 04:26:23;;;;;;;15.60;10.73;;;3.40;99.90;;;;;;5078623;28;20188;-86
2022/04/05 04:28:55;;;;;;;13.13;10.37;;;3.50;99.90;;;;;;5075210;28;20261;-87
2022/04/05 04:31:21;;;;;;;12.10;10.27;;;3.40;99.90;;;;;;5077672;28;20203;-93
2022/04/05 04:33:47;;;;;;;11.47;10.27;;;3.40;99.90;;;;;;5077580;28;20176;-90
2022/04/05 04:36:13;;;;;;;11.40;10.30;;;3.30;99.90;;;;;;5082524;28;20169;-82
2022/04/05 04:38:39;;;;;;;14.80;10.70;;;3.30;99.90;;;;;;5085203;28;20170;-82
2022/04/05 04:41:05;;;;;;;14.03;10.60;;;3.40;99.90;;;;;;5081458;28;20587;-87
2022/04/05 04:43:31;;;;;;;10.80;9.73;;;3.40;99.90;;;;;;5077241;28;20173;-90
2022/04/05 04:45:56;;;;;;;11.73;10.30;;;3.50;99.90;;;;;;5083743;28;20174;-82
2022/04/05 04:48:22;;;;;;;11.40;10.23;;;3.50;99.90;;;;;;5080764;28;20168;-84
2022/04/05 04:50:49;;;;;;;13.97;9.83;;;3.50;99.90;;;;;;5079003;28;20343;-84
2022/04/05 04:53:15;;;;;;;13.27;9.83;;;3.60;99.90;;;;;;5078269;28;20612;-84
2022/04/05 04:55:41;;;;;;;12.93;9.80;;;3.50;99.90;;;;;;5073226;28;20548;-84
2022/04/05 04:58:07;;;;;;;10.20;9.20;;;3.50;99.90;;;;;;5074296;28;20183;-85
2022/04/05 05:00:33;;;;;;;12.87;9.40;;;3.50;99.90;;;;;;5073904;28;20255;-87
2022/04/05 05:02:59;;;;;;;13.73;8.53;;;3.60;99.90;;;;;;5073665;28;20220;-84
2022/04/05 05:05:25;;;;;;;10.43;9.33;;;3.70;99.90;;;;;;5075227;28;20211;-83
2022/04/05 05:07:54;;;;;;;12.23;9.43;;;3.70;99.90;;;;;;5073967;28;20664;-84
2022/04/05 05:10:21;;;;;;;13.27;9.20;;;3.60;99.90;;;;;;5073602;28;20660;-85
2022/04/05 05:12:47;;;;;;;11.03;9.27;;;3.60;99.90;;;;;;5076474;28;20209;-85
2022/04/05 05:15:18;;;;;;;16.77;10.00;;;3.50;99.90;;;;;;5075578;28;20175;-87
2022/04/05 05:17:45;;;;;;;12.90;9.80;;;3.60;99.90;;;;;;5078014;28;20278;-86
2022/04/05 05:20:12;;;;;;;11.33;9.53;;;3.60;99.90;;;;;;5073194;28;20181;-85
2022/04/05 05:22:39;;;;;;;9.97;8.97;;;3.60;99.90;;;;;;5071757;28;20182;-85
2022/04/05 05:25:06;;;;;;;10.17;9.13;;;3.60;99.90;;;;;;5072241;28;20601;-87
2022/04/05 05:27:32;;;;;;;14.63;9.53;;;3.60;99.90;;;;;;5072897;28;20200;-85
2022/04/05 05:29:57;;;;;;;9.43;8.50;;;3.70;99.90;;;;;;5073422;28;20661;-88
2022/04/05 05:32:23;;;;;;;9.40;8.43;;;3.80;99.90;;;;;;5071378;28;20264;-85
2022/04/05 05:34:50;;;;;;;8.97;8.10;;;4.00;99.90;;;;;;5072825;28;20609;-85
2022/04/05 05:37:16;;;;;;;10.17;8.50;;;4.10;99.90;;;;;;5074446;28;20183;-86
2022/04/05 05:39:41;;;;;;;10.17;8.00;;;4.10;99.90;;;;;;5076772;28;20181;-89
2022/04/05 05:42:13;;;;;;;10.27;7.80;;;4.20;99.90;;;;;;5076748;28;20178;-86
2022/04/05 05:44:39;;;;;;;8.90;8.00;;;4.20;99.90;;;;;;5075776;28;20272;-86
2022/04/05 05:47:05;;;;;;;8.73;7.83;;;4.20;99.90;;;;;;5077199;28;20211;-88
2022/04/05 05:49:32;;;;;;;9.33;7.17;;;4.20;99.90;;;;;;5076257;28;20182;-85
2022/04/05 05:51:58;;;;;;;8.53;7.73;;;4.30;99.90;;;;;;5076625;28;20164;-86
2022/04/05 05:54:23;;;;;;;8.97;8.03;;;4.40;99.90;;;;;;5076188;28;20573;-83
2022/04/05 05:56:49;;;;;;;9.07;8.07;;;4.50;99.90;;;;;;5076665;28;20174;-84
2022/04/05 05:59:15;;;;;;;9.00;8.00;;;4.60;99.40;;;;;;5076559;28;20252;-85
2022/04/05 06:01:41;;;;;;;8.83;7.93;;;4.60;99.20;;;;;;5076385;28;20218;-83
2022/04/05 06:04:06;;;;;;;9.77;8.30;;;4.60;99.50;;;;;;5076074;28;20177;-87
2022/04/05 06:06:32;;;;;;;10.90;8.17;;;4.70;99.50;;;;;;5076150;28;20252;-85
2022/04/05 06:08:59;;;;;;;8.20;7.50;;;4.70;99.60;;;;;;5076297;28;20180;-83
2022/04/05 06:11:28;;;;;;;11.83;8.57;;;4.80;99.60;;;;;;5074868;28;20575;-84
2022/04/05 06:13:53;;;;;;;8.97;7.40;;;4.90;99.40;;;;;;5078607;28;20528;-83
2022/04/05 06:16:20;;;;;;;12.10;8.40;;;4.90;99.50;;;;;;5083380;28;20196;-82
2022/04/05 06:18:49;;;;;;;10.47;8.03;;;5.00;99.10;;;;;;5081658;28;20196;-83
2022/04/05 06:21:16;;;;;;;8.10;7.30;;;5.10;98.80;;;;;;5077439;28;20177;-82
2022/04/05 06:23:42;;;;;;;9.33;6.93;;;5.00;98.30;;;;;;5077024;28;20180;-87
2022/04/05 06:26:08;;;;;;;10.93;7.40;;;5.00;98.30;;;;;;5077646;28;20176;-84
2022/04/05 06:28:34;;;;;;;7.83;7.03;;;4.90;98.50;;;;;;5078688;28;20177;-85
2022/04/05 06:31:00;;;;;;;9.43;7.50;;;5.00;98.30;;;;;;5078110;28;20204;-84
2022/04/05 06:33:26;;;;;;;9.53;7.37;;;5.00;98.50;;;;;;5077055;28;20167;-83
2022/04/05 06:35:56;;;;;;;9.30;8.37;;;5.00;98.80;;;;;;5077632;28;20216;-84
2022/04/05 06:38:23;;;;;;;9.40;8.40;;;5.00;99.20;;;;;;5075648;28;20169;-83
2022/04/05 06:40:49;;;;;;;9.60;6.87;;;5.10;99.40;;;;;;5075836;28;20178;-83
2022/04/05 06:43:20;;;;;;;9.33;6.77;;;5.20;98.80;;;;;;5074458;28;20185;-82
2022/04/05 06:45:46;;;;;;;7.80;6.73;;;5.40;98.20;;;;;;5074218;28;20173;-84
2022/04/05 06:48:12;;;;;;;7.10;6.50;;;5.40;97.90;;;;;;5076294;28;20244;-84
2022/04/05 06:50:39;;;;;;;8.33;7.43;;;5.40;97.70;;;;;;5074807;28;20252;-85
2022/04/05 06:53:07;;;;;;;8.87;7.27;;;5.40;97.50;;;;;;5075610;28;20182;-85
2022/04/05 06:55:32;;;;;;;7.57;6.83;;;5.40;98.40;;;;;;5073733;28;20656;-84
2022/04/05 06:57:58;;;;;;;9.47;7.10;;;5.30;98.10;;;;;;5075761;28;20164;-86
2022/04/05 07:00:25;;;;;;;7.90;7.07;;;5.40;98.60;;;;;;5074627;28;20172;-84
2022/04/05 07:02:52;;;;;;;15.13;7.83;;;5.60;98.20;;;;;;5078437;28;20225;-83
2022/04/05 07:05:19;;;;;;;12.63;8.13;;;5.60;98.00;;;;;;5075700;28;20572;-85
2022/04/05 07:07:45;;;;;;;8.60;7.27;;;5.80;97.90;;;;;;5075119;28;20176;-84
2022/04/05 07:10:14;;;;;;;11.70;7.57;;;5.80;97.70;;;;;;5074751;28;20291;-90
2022/04/05 07:12:41;;;;;;;8.60;7.70;;;5.80;97.80;;;;;;5075222;28;20173;-90
2022/04/05 07:15:10;;;;;;;10.33;7.80;;;5.90;97.90;;;;;;5073962;28;20196;-84
2022/04/05 07:17:36;;;;;;;16.87;8.43;;;5.90;97.80;;;;;;5074968;28;20171;-88
2022/04/05 07:20:04;;;;;;;9.93;8.10;;;6.00;99.80;;;;;;5075089;28;20180;-87
2022/04/05 07:22:30;;;;;;;15.63;9.43;;;6.20;99.30;;;;;;5075966;28;20254;-83
2022/04/05 07:24:56;;;;;;;15.93;9.43;;;6.30;98.60;;;;;;5075100;28;20201;-85
2022/04/05 07:27:21;;;;;;;13.13;9.60;;;6.20;98.50;;;;;;5075099;28;20211;-88
2022/04/05 07:29:47;;;;;;;19.33;11.03;;;6.30;98.50;;;;;;5075125;28;20199;-85
2022/04/05 07:32:13;;;;;;;10.50;8.87;;;6.30;98.10;;;;;;5077594;28;20245;-89
2022/04/05 07:34:39;;;;;;;13.37;9.20;;;6.40;98.10;;;;;;5078406;28;20167;-88
2022/04/05 07:37:05;;;;;;;19.00;9.70;;;6.50;97.70;;;;;;5077863;28;20169;-89
2022/04/05 07:39:31;;;;;;;13.40;9.53;;;6.50;97.60;;;;;;5078191;28;20199;-90
2022/04/05 07:41:57;;;;;;;13.00;9.70;;;6.50;97.70;;;;;;5080204;28;20179;-87
2022/04/05 07:44:23;;;;;;;13.50;10.00;;;6.60;97.70;;;;;;5084207;28;20165;-86
2022/04/05 07:46:49;;;;;;;13.63;9.77;;;6.60;97.70;;;;;;5080702;28;20178;-88
2022/04/05 07:49:15;;;;;;;14.10;9.77;;;6.70;98.10;;;;;;5078476;28;20170;-86
2022/04/05 07:51:41;;;;;;;13.27;9.40;;;6.70;97.90;;;;;;5078481;28;20223;-88
2022/04/05 07:54:07;;;;;;;16.47;9.43;;;6.80;97.60;;;;;;5077189;28;20171;-88
2022/04/05 07:56:33;;;;;;;13.00;9.70;;;6.70;97.60;;;;;;5077819;28;20171;-88
2022/04/05 07:59:00;;;;;;;22.13;9.93;;;6.80;97.20;;;;;;5075650;28;20534;-83
2022/04/05 08:01:29;;;;;;;14.47;9.03;;;6.80;97.40;;;;;;5075842;28;20199;-88
2022/04/05 08:03:55;;;;;;;12.90;9.83;;;6.80;97.40;;;;;;5076108;28;20171;-87
2022/04/05 08:06:23;;;;;;;11.87;9.07;;;6.80;96.90;;;;;;5074872;28;20194;-86
2022/04/05 08:08:50;;;;;;;10.47;9.10;;;6.80;97.00;;;;;;5075841;28;20166;-84
2022/04/05 08:11:16;;;;;;;12.43;9.03;;;6.80;96.60;;;;;;5075542;28;20202;-89
2022/04/05 08:13:41;;;;;;;11.07;8.77;;;6.80;96.50;;;;;;5076122;28;20526;-84
2022/04/05 08:16:07;;;;;;;11.60;8.17;;;6.90;96.60;;;;;;5076185;28;20177;-85
2022/04/05 08:18:33;;;;;;;14.33;9.80;;;7.00;96.70;;;;;;5076070;28;20197;-85
2022/04/05 08:20:59;;;;;;;13.60;8.80;;;7.10;96.60;;;;;;5075167;28;20178;-85
2022/04/05 08:23:25;;;;;;;13.30;9.13;;;7.20;96.40;;;;;;5075717;28;20198;-85
2022/04/05 08:25:54;;;;;;;11.77;8.97;;;7.20;96.60;;;;;;5075467;28;20690;-84
2022/04/05 08:28:20;;;;;;;11.33;9.17;;;7.20;96.50;;;;;;5074499;28;20178;-87
2022/04/05 08:30:46;;;;;;;17.03;9.43;;;7.30;96.10;;;;;;5074387;28;20209;-85
2022/04/05 08:33:12;;;;;;;11.37;8.93;;;7.40;96.00;;;;;;5073039;28;20175;-88
2022/04/05 08:35:39;;;;;;;17.47;8.93;;;7.40;95.80;;;;;;5077126;28;20171;-84
2022/04/05 08:38:06;;;;;;;11.03;9.90;;;7.40;95.70;;;;;;5075962;28;20206;-85
2022/04/05 08:40:32;;;;;;;12.33;9.57;;;7.50;95.90;;;;;;5076396;28;20173;-86
2022/04/05 08:42:58;;;;;;;10.97;9.77;;;7.50;95.70;;;;;;5079972;28;20261;-84
2022/04/05 08:45:26;;;;;;;10.20;8.67;;;7.60;96.00;;;;;;5079595;28;20171;-84
2022/04/05 08:47:57;;;;;;;15.23;8.17;;;7.70;95.70;;;;;;5080499;28;20200;-82
2022/04/05 08:50:26;;;;;;;12.67;8.83;;;7.80;95.40;;;;;;5082984;28;20223;-88
2022/04/05 08:52:54;;;;;;;13.23;8.77;;;7.90;95.10;;;;;;5077016;28;20179;-85
2022/04/05 08:55:20;;;;;;;11.67;7.33;;;8.00;95.00;;;;;;5076646;28;20222;-86
2022/04/05 08:57:46;;;;;;;8.17;7.23;;;8.00;94.50;;;;;;5075228;28;20182;-84
2022/04/05 09:00:15;;;;;;;10.03;7.57;;;8.10;93.80;;;;;;5078474;28;20174;-84
2022/04/05 09:02:51;;;;;;;11.73;7.20;;;8.10;93.70;;;;;;5075506;28;20198;-90
2022/04/05 09:05:37;;;;;;;12.27;7.07;;;8.10;93.90;;;;;;5089414;28;20167;-84
2022/04/05 09:08:24;;;;;;;17.37;6.90;;;8.20;94.00;;;;;;5090197;28;20224;-82
2022/04/05 09:11:10;;;;;;;9.87;6.93;;;8.20;93.90;;;;;;5086592;28;20195;-86
2022/04/05 09:13:36;;;;;;;10.63;7.27;;;8.30;93.90;;;;;;5097587;28;20175;-84
2022/04/05 09:16:08;;;;;;;10.03;7.27;;;8.30;94.00;;;;;;5091465;28;20179;-83
2022/04/05 09:18:42;;;;;;;8.67;6.63;;;8.40;93.90;;;;;;5092601;28;20195;-84
2022/04/05 09:21:10;;;;;;;10.17;6.53;;;8.50;94.00;;;;;;5087524;28;20172;-86
2022/04/05 09:23:39;;;;;;;11.07;6.70;;;8.60;93.60;;;;;;5086655;28;20170;-85
2022/04/05 09:26:12;;;;;;;9.90;6.50;;;8.70;93.40;;;;;;5082804;28;20227;-89
2022/04/05 09:28:47;;;;;;;8.77;7.30;;;8.70;93.30;;;;;;5082716;28;20256;-86
2022/04/05 09:31:17;;;;;;;9.10;6.70;;;8.80;93.20;;;;;;5080228;28;20693;-86
2022/04/05 09:34:05;;;;;;;7.20;6.53;;;8.90;93.50;;;;;;5079764;28;20177;-85
2022/04/05 09:36:40;;;;;;;9.77;6.43;;;9.10;93.50;;;;;;5080379;28;20181;-84
2022/04/05 09:39:32;;;;;;;12.37;7.10;;;9.30;93.30;;;;;;5081515;28;20258;-86
2022/04/05 09:42:06;;;;;;;9.13;7.93;;;9.40;93.20;;;;;;5077466;28;20656;-88
2022/04/05 09:44:34;;;;;;;10.07;7.40;;;9.70;93.00;;;;;;5076853;28;20176;-87
2022/04/05 09:47:08;;;;;;;8.43;7.17;;;9.80;92.40;;;;;;5082219;28;20245;-88
2022/04/05 09:49:39;;;;;;;8.53;7.20;;;9.90;92.60;;;;;;5083825;28;20164;-87
2022/04/05 09:52:31;;;;;;;11.23;7.57;;;10.10;92.20;;;;;;5082565;28;20177;-87
2022/04/05 09:55:16;;;;;;;7.87;6.93;;;10.30;92.00;;;;;;5079009;28;20165;-88
2022/04/05 09:57:43;;;;;;;10.33;6.53;;;10.40;91.80;;;;;;5075747;28;20211;-86
2022/04/05 10:00:17;;;;;;;14.97;7.10;;;10.60;91.30;;;;;;5077089;28;20169;-87
2022/04/05 10:03:08;;;;;;;7.37;6.63;;;10.70;90.30;;;;;;5076561;28;20615;-89
2022/04/05 10:05:35;;;;;;;9.93;6.93;;;10.70;90.10;;;;;;5077010;28;20150;-87
2022/04/05 10:08:05;;;;;;;11.97;7.27;;;10.50;90.00;;;;;;5077594;28;20187;-90
2022/04/05 10:10:31;;;;;;;10.93;6.90;;;10.40;90.10;;;;;;5075436;28;20236;-90
2022/04/05 10:12:56;;;;;;;11.60;7.17;;;10.50;90.40;;;;;;5075298;28;20213;-89
2022/04/05 10:15:24;;;;;;;12.10;6.77;;;10.80;90.00;;;;;;5076677;28;20175;-90
2022/04/05 10:17:53;;;;;;;9.20;7.47;;;10.90;89.80;;;;;;5077957;28;20231;-90
2022/04/05 10:20:20;;;;;;;8.73;6.87;;;11.20;89.10;;;;;;5077503;28;20217;-89
2022/04/05 10:22:56;;;;;;;11.90;7.07;;;11.40;89.40;;;;;;5078640;28;20201;-89
2022/04/05 10:25:22;;;;;;;7.47;6.53;;;11.60;88.30;;;;;;5081348;28;20174;-87
2022/04/05 10:27:49;;;;;;;9.47;6.60;;;11.70;87.50;;;;;;5078728;28;21165;-85
2022/04/05 10:30:25;;;;;;;14.37;6.97;;;11.70;86.00;;;;;;5081443;28;20199;-88
2022/04/05 10:33:09;;;;;;;7.60;6.83;;;11.80;86.40;;;;;;5080592;28;20163;-88
2022/04/05 10:35:42;;;;;;;11.73;7.30;;;11.70;86.30;;;;;;5079276;28;20174;-87
2022/04/05 10:38:18;;;;;;;9.43;7.13;;;11.70;86.20;;;;;;5076506;28;20167;-91
2022/04/05 10:41:20;;;;;;;9.80;6.77;;;11.80;86.70;;;;;;5075893;28;20216;-86
2022/04/05 10:44:24;;;;;;;8.13;6.77;;;11.90;86.20;;;;;;5076035;28;20194;-85
2022/04/05 10:46:59;;;;;;;8.10;6.30;;;12.10;86.50;;;;;;5074820;28;20563;-87
2022/04/05 10:49:40;;;;;;;6.70;6.03;;;12.20;85.50;;;;;;5076212;28;20178;-86
2022/04/05 10:52:17;;;;;;;10.00;6.20;;;12.30;86.30;;;;;;5077530;28;20176;-85
2022/04/05 10:54:49;;;;;;;10.17;6.77;;;12.30;84.80;;;;;;5075864;28;20629;-86
2022/04/05 10:57:32;;;;;;;10.00;7.00;;;12.40;85.10;;;;;;5087868;28;20202;-86
2022/04/05 11:00:02;;;;;;;10.67;6.80;;;12.60;84.60;;;;;;5082178;28;20186;-82
2022/04/05 11:02:30;;;;;;;6.30;5.70;;;12.70;84.10;;;;;;5088127;28;20184;-86
2022/04/05 11:05:15;;;;;;;8.83;6.90;;;12.60;83.30;;;;;;5079038;28;20619;-88
2022/04/05 11:07:52;;;;;;;9.20;6.93;;;12.50;83.70;;;;;;5076393;28;20174;-88
2022/04/05 11:10:20;;;;;;;9.73;6.83;;;12.60;84.20;;;;;;5075728;28;20202;-89
2022/04/05 11:12:46;;;;;;;7.67;6.90;;;12.70;83.50;;;;;;5074978;28;20183;-87
2022/04/05 11:15:15;;;;;;;7.67;6.40;;;12.80;83.50;;;;;;5075697;28;20186;-89
2022/04/05 11:17:42;;;;;;;12.67;6.27;;;12.90;83.20;;;;;;5076132;28;20174;-84
2022/04/05 11:20:10;;;;;;;8.70;6.20;;;13.10;82.90;;;;;;5079963;28;20246;-87
2022/04/05 11:22:39;;;;;;;7.17;6.37;;;13.20;83.50;;;;;;5078417;28;20180;-81
2022/04/05 11:25:10;;;;;;;10.10;6.80;;;13.20;83.60;;;;;;5078767;28;20580;-82
2022/04/05 11:27:49;;;;;;;9.30;6.37;;;13.30;83.70;;;;;;5078027;28;20569;-84
2022/04/05 11:30:27;;;;;;;7.97;6.20;;;13.40;83.90;;;;;;5076042;28;20278;-83
2022/04/05 11:33:12;;;;;;;7.00;5.70;;;13.50;84.40;;;;;;5074732;28;20166;-91
2022/04/05 11:35:42;;;;;;;6.80;6.10;;;13.70;84.60;;;;;;5078640;28;20249;-86
2022/04/05 11:38:27;;;;;;;7.00;5.47;;;13.80;84.30;;;;;;5077828;28;20166;-84
2022/04/05 11:41:02;;;;;;;8.43;5.60;;;13.80;84.90;;;;;;5075936;28;20198;-85
2022/04/05 11:43:32;;;;;;;8.57;6.00;;;13.90;84.50;;;;;;5075658;28;20206;-84
2022/04/05 11:46:02;;;;;;;10.30;6.33;;;14.10;83.30;;;;;;5075157;28;20702;-84
2022/04/05 11:48:28;;;;;;;13.00;5.90;;;14.10;83.90;;;;;;5075411;28;20222;-88
2022/04/05 11:50:57;;;;;;;14.80;6.27;;;14.10;83.10;;;;;;5075550;28;20318;-85
2022/04/05 11:53:30;;;;;;;12.07;5.93;;;14.20;82.90;;;;;;5073247;28;20175;-84
2022/04/05 11:56:14;;;;;;;9.90;6.30;;;14.30;83.50;;;;;;5074536;28;20571;-88
2022/04/05 11:58:49;;;;;;;7.10;6.20;;;14.40;81.30;;;;;;5074486;28;20202;-87
2022/04/05 12:01:20;;;;;;;8.63;5.67;;;14.40;80.30;;;;;;5073475;28;20209;-89
2022/04/05 12:03:46;;;;;;;8.40;6.23;;;14.40;79.60;;;;;;5074432;28;20250;-87
2022/04/05 12:06:34;;;;;;;12.23;6.53;;;14.30;80.10;;;;;;5073451;28;20211;-86
2022/04/05 12:09:09;;;;;;;8.03;5.93;;;14.30;81.40;;;;;;5074089;28;20158;-84
2022/04/05 12:11:37;;;;;;;8.63;5.87;;;14.40;81.50;;;;;;5074053;28;20212;-84
2022/04/05 12:14:05;;;;;;;7.17;6.00;;;14.50;80.90;;;;;;5075367;28;20173;-83
2022/04/05 12:16:46;;;;;;;6.60;5.63;;;14.60;80.90;;;;;;5073747;28;20534;-84
2022/04/05 12:19:18;;;;;;;8.50;5.60;;;14.70;80.60;;;;;;5076346;28;20171;-84
2022/04/05 12:21:43;;;;;;;10.37;5.70;;;14.80;80.40;;;;;;5076541;28;20220;-83
2022/04/05 12:24:09;;;;;;;10.47;5.83;;;14.90;81.00;;;;;;5075362;28;20175;-85
2022/04/05 12:26:35;;;;;;;9.03;5.87;;;14.90;81.10;;;;;;5074005;28;20181;-82
2022/04/05 12:29:01;;;;;;;10.83;5.27;;;15.00;79.40;;;;;;5074423;28;20210;-87
2022/04/05 12:31:29;;;;;;;8.50;5.27;;;15.00;81.10;;;;;;5073792;28;20203;-85
2022/04/05 12:34:14;;;;;;;8.93;4.93;;;15.20;80.80;;;;;;5073969;28;20198;-84
2022/04/05 12:36:41;;;;;;;7.73;4.77;;;15.20;80.60;;;;;;5073832;28;20201;-82
2022/04/05 12:39:18;;;;;;;8.50;5.23;;;15.30;79.70;;;;;;5073699;28;20285;-82
2022/04/05 12:41:46;;;;;;;14.90;5.50;;;15.40;79.20;;;;;;5074106;28;20187;-83
2022/04/05 12:44:23;;;;;;;8.87;4.70;;;15.40;78.70;;;;;;5073981;28;20263;-83
2022/04/05 12:46:54;;;;;;;9.40;4.93;;;15.50;78.70;;;;;;5074029;28;20182;-84
2022/04/05 12:49:26;;;;;;;12.40;4.70;;;15.60;78.90;;;;;;5072335;28;20185;-82
2022/04/05 12:52:06;;;;;;;5.20;4.33;;;15.70;78.60;;;;;;5073504;28;20238;-83
2022/04/05 12:54:34;;;;;;;8.23;4.40;;;15.70;78.20;;;;;;5073340;28;20175;-87
2022/04/05 12:57:24;;;;;;;8.63;4.47;;;15.70;76.20;;;;;;5073501;28;20252;-83